Terminal Aerodrome Forecast
Issued by NWS

Home | Current Version | Previous Version | Text Only | Print | Product List | Glossary On
Versions: 1 2 3 4 5 6 7 8 9 10 11 12 13 14 15 16 17 18 19
000
FTUS43 KDLH 202336
TAFHYR
TAF
KHYR 202336Z 2100/2124 VRB04KT P6SM SKC
     FM210500 00000KT 4SM BR SKC
     FM211200 12004KT P6SM BKN150
     FM211700 15010KT P6SM BKN150=

USA.gov is the U.S. government's official web portal to all federal, state and local government web resources and services.